Terminal Aerodrome Forecast
Issued by NWS Wilmington, OH

Current Version | Previous Version | Graphics & Text | Print | Product List | Glossary On
Versions: 1 2 3 4 5 6 7 8 9 10 11 12 13 14 15 16 17 18 19 20 21 22
994
FTUS41 KILN 250246 AAA
TAFCVG
TAF AMD
KCVG 250246Z 2503/2606 18004KT P6SM FEW250
     FM250500 18002KT P6SM BKN070
     FM251200 20006KT P6SM VCSH BKN050
     FM251800 20009KT P6SM BKN040
     FM260100 17006KT P6SM SCT040=

USA.gov is the U.S. government's official web portal to all federal, state and local government web resources and services.